Time;durP1;ratioP1;P1;durP2;ratioP2;P2;SDS_P1;SDS_P2;PMS_P1;PMS_P2;Temp;Humidity;BMP_temperature;BMP_pressure;BME280_temperature;BME280_humidity;BME280_pressure;Samples;Min_cycle;Max_cycle;Signal;HPM_P1;HPM_P2
2023/06/05 00:04:15;;;;;;;4.93;2.78;;;;;;;;;;10319525;28;20079;-61
2023/06/05 00:09:14;;;;;;;3.38;2.60;;;;;;;;;;10319048;28;20079;-61
2023/06/05 00:14:13;;;;;;;7.30;3.67;;;;;;;;;;10313339;28;20064;-62
2023/06/05 00:19:11;;;;;;;4.78;3.10;;;;;;;;;;10315605;28;20075;-61
2023/06/05 00:24:09;;;;;;;5.95;3.85;;;;;;;;;;10318185;28;20080;-61
2023/06/05 00:29:09;;;;;;;4.13;3.70;;;;;;;;;;10317958;28;20075;-60
2023/06/05 00:34:07;;;;;;;5.53;3.33;;;;;;;;;;10314054;28;20072;-62
2023/06/05 00:39:05;;;;;;;7.50;4.68;;;;;;;;;;10315383;28;20076;-62
2023/06/05 00:44:03;;;;;;;4.75;4.13;;;;;;;;;;10317101;28;20083;-61
2023/06/05 00:49:03;;;;;;;9.30;3.97;;;;;;;;;;10316591;28;20076;-62
2023/06/05 00:54:02;;;;;;;4.97;4.28;;;;;;;;;;10310301;28;20075;-62
2023/06/05 00:59:00;;;;;;;4.65;4.07;;;;;;;;;;10316486;28;20072;-62
2023/06/05 01:03:59;;;;;;;4.05;3.72;;;;;;;;;;10316498;28;20134;-63
2023/06/05 01:09:00;;;;;;;8.02;4.50;;;;;;;;;;10314351;28;20072;-62
2023/06/05 01:14:03;;;;;;;5.90;4.65;;;;;;;;;;10316656;28;20060;-62
2023/06/05 01:19:02;;;;;;;4.72;4.13;;;;;;;;;;10314065;28;20067;-61
2023/06/05 01:24:02;;;;;;;5.03;4.50;;;;;;;;;;10315576;28;20075;-61
2023/06/05 01:29:02;;;;;;;5.05;4.38;;;;;;;;;;10306669;28;20100;-62
2023/06/05 01:34:03;;;;;;;6.32;4.00;;;;;;;;;;10315155;28;20072;-62
2023/06/05 01:39:04;;;;;;;4.60;4.05;;;;;;;;;;10314826;28;20071;-62
2023/06/05 01:44:03;;;;;;;8.25;4.53;;;;;;;;;;10313658;28;20064;-61
2023/06/05 01:49:02;;;;;;;5.63;4.22;;;;;;;;;;10313826;28;20159;-62
2023/06/05 01:54:00;;;;;;;4.93;4.28;;;;;;;;;;10312872;28;20083;-62
2023/06/05 01:59:06;;;;;;;4.70;4.00;;;;;;;;;;10314570;28;20157;-62
2023/06/05 02:04:05;;;;;;;4.88;4.20;;;;;;;;;;10309631;28;20079;-62
2023/06/05 02:09:04;;;;;;;7.85;5.05;;;;;;;;;;10308637;28;20475;-61
2023/06/05 02:14:04;;;;;;;6.18;4.40;;;;;;;;;;10312861;28;20063;-61
2023/06/05 02:19:03;;;;;;;6.28;4.28;;;;;;;;;;10312856;28;20079;-61
2023/06/05 02:24:01;;;;;;;6.43;4.80;;;;;;;;;;10313451;28;20067;-61
2023/06/05 02:29:00;;;;;;;5.10;4.00;;;;;;;;;;10313792;28;20076;-62
2023/06/05 02:34:01;;;;;;;7.68;4.20;;;;;;;;;;10311923;28;20079;-62
2023/06/05 02:39:01;;;;;;;9.00;5.55;;;;;;;;;;10312991;28;20854;-63
2023/06/05 02:44:00;;;;;;;6.47;4.70;;;;;;;;;;10311659;28;20053;-63
2023/06/05 02:49:00;;;;;;;7.55;4.30;;;;;;;;;;10309760;28;21037;-63
2023/06/05 02:53:59;;;;;;;8.00;4.88;;;;;;;;;;10312562;28;20072;-63
2023/06/05 02:58:57;;;;;;;7.97;4.78;;;;;;;;;;10312410;28;20044;-61
2023/06/05 03:03:56;;;;;;;6.30;4.50;;;;;;;;;;10319953;28;20084;-62
2023/06/05 03:08:57;;;;;;;7.47;4.88;;;;;;;;;;10319758;28;20072;-62
2023/06/05 03:13:55;;;;;;;8.27;4.32;;;;;;;;;;10320426;28;20068;-61
2023/06/05 03:18:57;;;;;;;8.07;5.88;;;;;;;;;;10312384;28;20670;-62
2023/06/05 03:23:57;;;;;;;7.72;4.75;;;;;;;;;;10312795;28;20080;-62
2023/06/05 03:28:55;;;;;;;5.95;4.65;;;;;;;;;;10320339;28;20068;-61
2023/06/05 03:33:54;;;;;;;7.80;4.32;;;;;;;;;;10312736;28;20087;-62
2023/06/05 03:38:53;;;;;;;7.53;4.47;;;;;;;;;;10309750;28;20051;-61
2023/06/05 03:43:53;;;;;;;5.25;4.00;;;;;;;;;;10317342;28;20083;-61
2023/06/05 03:48:58;;;;;;;5.43;4.18;;;;;;;;;;10308828;28;20076;-61
2023/06/05 03:53:58;;;;;;;7.93;3.95;;;;;;;;;;10313144;28;20103;-61
2023/06/05 03:58:58;;;;;;;6.85;4.45;;;;;;;;;;10318059;28;20074;-61
2023/06/05 04:03:56;;;;;;;8.35;4.65;;;;;;;;;;10317900;28;20092;-61
2023/06/05 04:08:55;;;;;;;5.10;4.10;;;;;;;;;;10318145;28;20076;-61
2023/06/05 04:13:53;;;;;;;8.40;5.13;;;;;;;;;;10315760;28;20076;-62
2023/06/05 04:18:54;;;;;;;8.10;4.32;;;;;;;;;;10305688;28;20072;-62
2023/06/05 04:23:52;;;;;;;4.97;3.92;;;;;;;;;;10314914;28;20083;-62
2023/06/05 04:28:51;;;;;;;5.40;4.10;;;;;;;;;;10326068;28;20072;-60
2023/06/05 04:33:50;;;;;;;8.02;4.45;;;;;;;;;;10311066;28;20122;-61
2023/06/05 04:38:49;;;;;;;9.68;4.47;;;;;;;;;;10325087;28;20087;-60
2023/06/05 04:43:48;;;;;;;8.50;3.95;;;;;;;;;;10313147;28;20080;-60
2023/06/05 04:48:47;;;;;;;4.97;4.10;;;;;;;;;;10309431;28;20482;-61
2023/06/05 04:53:45;;;;;;;5.90;3.85;;;;;;;;;;10311625;28;20084;-61
2023/06/05 04:58:47;;;;;;;11.10;5.90;;;;;;;;;;10313309;28;20073;-61
2023/06/05 05:03:46;;;;;;;8.07;4.28;;;;;;;;;;10323378;28;20091;-61
2023/06/05 05:08:49;;;;;;;11.75;5.28;;;;;;;;;;10313899;28;20083;-62
2023/06/05 05:13:48;;;;;;;6.07;3.92;;;;;;;;;;10309614;28;20560;-61
2023/06/05 05:18:47;;;;;;;6.20;4.88;;;;;;;;;;10309004;28;20080;-61
2023/06/05 05:23:46;;;;;;;8.02;4.30;;;;;;;;;;10317753;28;20070;-60
2023/06/05 05:28:45;;;;;;;7.35;3.95;;;;;;;;;;10312374;28;20083;-61
2023/06/05 05:33:45;;;;;;;8.68;3.92;;;;;;;;;;10313571;28;20072;-60
2023/06/05 05:38:44;;;;;;;11.43;4.18;;;;;;;;;;10309435;28;20501;-61
2023/06/05 05:43:42;;;;;;;3.60;3.28;;;;;;;;;;10312008;28;20076;-61
2023/06/05 05:48:41;;;;;;;6.60;3.70;;;;;;;;;;10312114;28;20075;-61
2023/06/05 05:53:40;;;;;;;7.60;5.18;;;;;;;;;;10311402;28;20475;-62
2023/06/05 05:58:38;;;;;;;6.53;3.50;;;;;;;;;;10309218;28;20079;-61
2023/06/05 06:03:37;;;;;;;7.13;3.35;;;;;;;;;;10310967;28;20083;-61
2023/06/05 06:08:35;;;;;;;17.25;3.30;;;;;;;;;;10307594;28;20537;-61
2023/06/05 06:13:35;;;;;;;9.48;4.00;;;;;;;;;;10311177;28;20080;-62
2023/06/05 06:18:33;;;;;;;6.88;3.33;;;;;;;;;;10307830;28;20075;-61
2023/06/05 06:23:31;;;;;;;7.13;3.00;;;;;;;;;;10311016;28;20068;-61
2023/06/05 06:28:30;;;;;;;4.68;3.22;;;;;;;;;;10312958;28;20094;-62
2023/06/05 06:33:30;;;;;;;5.53;3.28;;;;;;;;;;10313547;28;20075;-61
2023/06/05 06:38:30;;;;;;;8.57;3.75;;;;;;;;;;10313017;28;20506;-61
2023/06/05 06:43:30;;;;;;;7.53;4.07;;;;;;;;;;10314146;28;20064;-61
2023/06/05 06:48:34;;;;;;;8.15;3.00;;;;;;;;;;10313523;28;20064;-62
2023/06/05 06:53:33;;;;;;;3.10;2.80;;;;;;;;;;10312940;28;20498;-62
2023/06/05 06:58:31;;;;;;;6.22;4.40;;;;;;;;;;10312647;28;20068;-61
2023/06/05 07:03:35;;;;;;;14.35;5.07;;;;;;;;;;10312475;28;20072;-62
2023/06/05 07:08:35;;;;;;;12.93;4.47;;;;;;;;;;10312758;28;20072;-62
2023/06/05 07:13:33;;;;;;;11.80;5.22;;;;;;;;;;10313202;28;20083;-61
2023/06/05 07:18:31;;;;;;;3.63;2.63;;;;;;;;;;10312701;28;20072;-62
2023/06/05 07:23:29;;;;;;;12.35;4.70;;;;;;;;;;10312276;28;20585;-62
2023/06/05 07:28:29;;;;;;;7.75;3.95;;;;;;;;;;10311934;28;20064;-62
2023/06/05 07:33:27;;;;;;;7.13;3.70;;;;;;;;;;10310021;28;20075;-62
2023/06/05 07:38:29;;;;;;;8.38;4.43;;;;;;;;;;10312294;28;20064;-62
2023/06/05 07:43:29;;;;;;;7.00;5.15;;;;;;;;;;10316650;28;20043;-62
2023/06/05 07:48:27;;;;;;;12.30;7.30;;;;;;;;;;10320356;28;20099;-61
2023/06/05 07:53:25;;;;;;;17.67;6.55;;;;;;;;;;10319583;28;20060;-62
2023/06/05 07:58:23;;;;;;;13.68;5.93;;;;;;;;;;10317566;28;20083;-61
2023/06/05 08:03:25;;;;;;;11.77;6.85;;;;;;;;;;10318881;28;20079;-62
2023/06/05 08:08:26;;;;;;;10.40;6.38;;;;;;;;;;10319189;28;20470;-62
2023/06/05 08:13:24;;;;;;;10.50;6.93;;;;;;;;;;10317005;28;20072;-63
2023/06/05 08:18:23;;;;;;;11.45;5.40;;;;;;;;;;10317070;28;20068;-62
2023/06/05 08:23:22;;;;;;;8.23;5.05;;;;;;;;;;10316029;28;20068;-63
2023/06/05 08:28:20;;;;;;;11.30;4.80;;;;;;;;;;10318197;28;20075;-62
2023/06/05 08:33:18;;;;;;;9.35;4.03;;;;;;;;;;10317973;28;20087;-62
2023/06/05 08:38:18;;;;;;;5.10;2.95;;;;;;;;;;10317974;28;20072;-62
2023/06/05 08:43:17;;;;;;;12.18;3.15;;;;;;;;;;10317552;28;20067;-61
2023/06/05 08:48:17;;;;;;;3.63;2.28;;;;;;;;;;10317178;28;20036;-61
2023/06/05 08:53:17;;;;;;;7.50;2.58;;;;;;;;;;10316897;28;20072;-61
2023/06/05 08:58:20;;;;;;;5.32;2.22;;;;;;;;;;10316885;28;20540;-61
2023/06/05 09:03:19;;;;;;;4.80;2.50;;;;;;;;;;10316745;28;20086;-62
2023/06/05 09:08:19;;;;;;;2.88;2.20;;;;;;;;;;10316934;28;20071;-61
2023/06/05 09:13:18;;;;;;;5.43;1.80;;;;;;;;;;10316000;28;20072;-62
2023/06/05 09:18:18;;;;;;;2.00;1.55;;;;;;;;;;10315298;28;20068;-62
2023/06/05 09:23:24;;;;;;;8.68;1.70;;;;;;;;;;10315645;28;20076;-61
2023/06/05 09:28:24;;;;;;;2.22;1.33;;;;;;;;;;10314314;28;20067;-61
2023/06/05 09:33:24;;;;;;;4.18;1.70;;;;;;;;;;10313130;28;20080;-60
2023/06/05 09:38:27;;;;;;;3.83;2.55;;;;;;;;;;10313436;28;20090;-60
2023/06/05 09:43:25;;;;;;;2.97;1.83;;;;;;;;;;10313064;28;20082;-62
2023/06/05 09:48:27;;;;;;;12.48;3.15;;;;;;;;;;10313342;28;20060;-61
2023/06/05 09:53:25;;;;;;;3.35;1.95;;;;;;;;;;10315153;28;20091;-61
2023/06/05 09:58:23;;;;;;;4.78;2.33;;;;;;;;;;10313218;28;20498;-61
2023/06/05 10:03:23;;;;;;;3.28;2.15;;;;;;;;;;10312177;28;20155;-61
2023/06/05 10:08:23;;;;;;;2.28;1.92;;;;;;;;;;10314630;28;20072;-61
2023/06/05 10:13:21;;;;;;;4.68;1.90;;;;;;;;;;10313390;28;20079;-61
2023/06/05 10:18:19;;;;;;;4.35;2.17;;;;;;;;;;10314381;28;20086;-62
2023/06/05 10:23:18;;;;;;;5.70;2.97;;;;;;;;;;10313979;28;20072;-61
2023/06/05 10:28:25;;;;;;;5.05;2.60;;;;;;;;;;10313339;28;20072;-62
2023/06/05 10:33:31;;;;;;;3.90;1.88;;;;;;;;;;10311508;28;20067;-62
2023/06/05 10:38:29;;;;;;;;;;;;;;;;;;10312454;28;20079;-62
2023/06/05 10:43:29;;;;;;;3.95;2.40;;;;;;;;;;10313623;28;19955;-60
2023/06/05 10:48:45;;;;;;;9.25;3.92;;;;;;;;;;10313467;28;20040;-61
2023/06/05 10:53:46;;;;;;;6.72;3.05;;;;;;;;;;10303504;28;20516;-61
2023/06/05 10:58:59;;;;;;;3.10;2.45;;;;;;;;;;10313410;28;20110;-61
2023/06/05 11:03:59;;;;;;;5.57;3.70;;;;;;;;;;10312061;28;20084;-62
2023/06/05 11:09:08;;;;;;;2.38;2.03;;;;;;;;;;10313667;28;20064;-62
2023/06/05 11:14:06;;;;;;;2.70;2.10;;;;;;;;;;10312629;28;20485;-62
2023/06/05 11:19:23;;;;;;;7.53;2.67;;;;;;;;;;10319304;28;20060;-62
2023/06/05 11:24:23;;;;;;;5.10;3.65;;;;;;;;;;10320010;28;20064;-61
2023/06/05 11:29:25;;;;;;;3.28;1.65;;;;;;;;;;10318335;28;20076;-63
2023/06/05 11:34:23;;;;;;;3.47;2.47;;;;;;;;;;10319834;28;20573;-62
2023/06/05 11:39:29;;;;;;;2.80;2.30;;;;;;;;;;10311013;28;20080;-60
2023/06/05 11:44:31;;;;;;;3.00;2.10;;;;;;;;;;10318469;28;20064;-62
2023/06/05 11:49:29;;;;;;;2.90;2.28;;;;;;;;;;10319224;28;20068;-61
2023/06/05 11:54:30;;;;;;;3.47;2.47;;;;;;;;;;10319203;28;20539;-61
2023/06/05 11:59:29;;;;;;;3.20;2.20;;;;;;;;;;10319419;28;20445;-62
2023/06/05 12:04:27;;;;;;;4.88;2.22;;;;;;;;;;10319652;28;20083;-61
2023/06/05 12:09:25;;;;;;;6.07;2.42;;;;;;;;;;10317501;28;20450;-61
2023/06/05 12:14:33;;;;;;;7.72;2.17;;;;;;;;;;10319237;28;20079;-61
2023/06/05 12:19:43;;;;;;;3.33;2.55;;;;;;;;;;10316711;28;20103;-63
2023/06/05 12:24:42;;;;;;;4.60;1.95;;;;;;;;;;10315944;28;20469;-63
2023/06/05 12:29:54;;;;;;;2.45;2.17;;;;;;;;;;10315792;28;20087;-61
2023/06/05 12:34:55;;;;;;;2.90;2.08;;;;;;;;;;10316079;28;20075;-63
2023/06/05 12:40:05;;;;;;;5.00;2.10;;;;;;;;;;10316558;28;20075;-62
2023/06/05 12:45:23;;;;;;;4.30;1.90;;;;;;;;;;10315402;28;20087;-61
2023/06/05 12:50:25;;;;;;;4.85;2.20;;;;;;;;;;10314969;28;20493;-61
2023/06/05 12:55:24;;;;;;;4.00;2.17;;;;;;;;;;10316044;28;20076;-61
2023/06/05 13:00:29;;;;;;;3.58;2.28;;;;;;;;;;10316812;28;20083;-64
2023/06/05 13:05:36;;;;;;;;;;;;;;;;;;10316364;28;20067;-61
2023/06/05 13:10:34;;;;;;;4.07;2.22;;;;;;;;;;10316750;28;19959;-62
2023/06/05 13:15:33;;;;;;;3.33;2.40;;;;;;;;;;10316707;28;20068;-62
2023/06/05 13:20:37;;;;;;;7.38;2.60;;;;;;;;;;10314084;28;20548;-62
2023/06/05 13:25:35;;;;;;;8.93;2.58;;;;;;;;;;10316536;28;20088;-62
2023/06/05 13:30:35;;;;;;;4.45;2.15;;;;;;;;;;10316448;28;20083;-62
2023/06/05 13:35:33;;;;;;;7.28;2.42;;;;;;;;;;10316000;28;20087;-62
2023/06/05 13:40:32;;;;;;;3.00;2.58;;;;;;;;;;10314952;28;20080;-63
2023/06/05 13:45:30;;;;;;;12.82;9.43;;;;;;;;;;10314979;28;20477;-63
2023/06/05 13:50:30;;;;;;;2.35;2.15;;;;;;;;;;10315580;28;20075;-62
2023/06/05 13:55:28;;;;;;;5.15;3.15;;;;;;;;;;10314834;28;20328;-63
2023/06/05 14:00:26;;;;;;;6.10;2.00;;;;;;;;;;10315212;28;20072;-62
2023/06/05 14:05:24;;;;;;;19.73;3.72;;;;;;;;;;10313400;28;20552;-61
2023/06/05 14:10:25;;;;;;;4.90;2.30;;;;;;;;;;10312430;28;20076;-61
2023/06/05 14:15:23;;;;;;;6.35;2.50;;;;;;;;;;10314111;28;20067;-61
2023/06/05 14:20:22;;;;;;;6.55;2.90;;;;;;;;;;10312297;28;20072;-61
2023/06/05 14:25:20;;;;;;;9.40;2.80;;;;;;;;;;10314165;28;20072;-61
2023/06/05 14:30:20;;;;;;;5.18;2.47;;;;;;;;;;10313569;28;20044;-61
2023/06/05 14:35:22;;;;;;;8.60;2.60;;;;;;;;;;10313746;28;20068;-62
2023/06/05 14:40:20;;;;;;;2.50;2.30;;;;;;;;;;10313263;28;20071;-61
2023/06/05 14:45:22;;;;;;;10.40;2.10;;;;;;;;;;10307192;28;20087;-61
2023/06/05 14:50:21;;;;;;;5.93;2.65;;;;;;;;;;10315659;28;20079;-61
2023/06/05 14:55:19;;;;;;;2.92;2.50;;;;;;;;;;10324186;28;20076;-62
2023/06/05 15:00:17;;;;;;;5.57;2.15;;;;;;;;;;10326722;28;20087;-63
2023/06/05 15:05:17;;;;;;;4.43;3.00;;;;;;;;;;10326898;28;20087;-62
2023/06/05 15:10:16;;;;;;;4.53;3.28;;;;;;;;;;10327373;28;20076;-62
2023/06/05 15:15:14;;;;;;;6.07;3.50;;;;;;;;;;10325908;28;20502;-62
2023/06/05 15:20:17;;;;;;;9.68;2.78;;;;;;;;;;10326535;28;20526;-62
2023/06/05 15:25:16;;;;;;;2.67;2.15;;;;;;;;;;10327019;28;20071;-61
2023/06/05 15:30:14;;;;;;;5.82;2.38;;;;;;;;;;10327132;28;20068;-62
2023/06/05 15:35:13;;;;;;;4.55;2.95;;;;;;;;;;10325663;28;20087;-62
2023/06/05 15:40:14;;;;;;;4.80;2.10;;;;;;;;;;10324940;28;20079;-62
2023/06/05 15:45:15;;;;;;;2.85;2.53;;;;;;;;;;10325947;28;20494;-62
2023/06/05 15:50:13;;;;;;;3.70;3.22;;;;;;;;;;10323984;28;20076;-61
2023/06/05 15:55:15;;;;;;;7.90;2.80;;;;;;;;;;10324965;28;20088;-61
2023/06/05 16:00:14;;;;;;;2.97;2.10;;;;;;;;;;10325501;28;20064;-61
2023/06/05 16:05:14;;;;;;;4.28;3.50;;;;;;;;;;10317590;28;20084;-62
2023/06/05 16:10:13;;;;;;;8.30;4.82;;;;;;;;;;10317123;28;20049;-62
2023/06/05 16:15:12;;;;;;;4.95;3.03;;;;;;;;;;10317521;28;20072;-62
2023/06/05 16:20:14;;;;;;;10.95;4.00;;;;;;;;;;10305546;28;20482;-62
2023/06/05 16:25:14;;;;;;;5.25;4.38;;;;;;;;;;10316548;28;20060;-62
2023/06/05 16:30:12;;;;;;;4.60;2.65;;;;;;;;;;10312811;28;20075;-63
2023/06/05 16:35:10;;;;;;;5.93;3.63;;;;;;;;;;10311117;28;20064;-63
2023/06/05 16:40:12;;;;;;;6.90;3.90;;;;;;;;;;10312771;28;20080;-62
2023/06/05 16:45:11;;;;;;;7.18;4.72;;;;;;;;;;10308715;28;20065;-63
2023/06/05 16:50:10;;;;;;;6.68;4.85;;;;;;;;;;10308200;28;20080;-62
2023/06/05 16:55:09;;;;;;;7.57;6.13;;;;;;;;;;10314142;28;20107;-62
2023/06/05 17:00:10;;;;;;;4.72;2.78;;;;;;;;;;10302328;28;20113;-62
2023/06/05 17:05:12;;;;;;;4.53;3.13;;;;;;;;;;10307550;28;20477;-61
2023/06/05 17:10:11;;;;;;;5.78;3.97;;;;;;;;;;10316162;28;20072;-62
2023/06/05 17:15:12;;;;;;;4.32;2.60;;;;;;;;;;10310177;28;20083;-62
2023/06/05 17:20:14;;;;;;;4.50;2.85;;;;;;;;;;10310152;28;20482;-62
2023/06/05 17:25:12;;;;;;;10.88;4.82;;;;;;;;;;10312716;28;20068;-63
2023/06/05 17:30:13;;;;;;;3.25;2.80;;;;;;;;;;10314936;28;20088;-62
2023/06/05 17:35:11;;;;;;;5.38;2.50;;;;;;;;;;10312369;28;20072;-63
2023/06/05 17:40:11;;;;;;;4.07;2.65;;;;;;;;;;10308620;28;20056;-62
2023/06/05 17:45:10;;;;;;;3.92;2.55;;;;;;;;;;10298817;28;20068;-61
2023/06/05 17:50:09;;;;;;;13.38;3.60;;;;;;;;;;10302343;28;20083;-63
2023/06/05 17:55:08;;;;;;;2.30;1.58;;;;;;;;;;10308774;28;20077;-63
2023/06/05 18:00:09;;;;;;;4.72;1.88;;;;;;;;;;10317319;28;20068;-63
2023/06/05 18:05:13;;;;;;;4.60;1.42;;;;;;;;;;10307197;28;20071;-63
2023/06/05 18:10:11;;;;;;;7.00;2.10;;;;;;;;;;10311510;28;20071;-62
2023/06/05 18:15:11;;;;;;;9.27;3.22;;;;;;;;;;10314479;28;20099;-63
2023/06/05 18:20:10;;;;;;;4.30;1.85;;;;;;;;;;10312725;28;20322;-63
2023/06/05 18:25:11;;;;;;;3.63;1.88;;;;;;;;;;10310820;28;20076;-63
2023/06/05 18:30:09;;;;;;;4.07;2.65;;;;;;;;;;10312009;28;20072;-62
2023/06/05 18:35:10;;;;;;;5.15;2.03;;;;;;;;;;10312864;28;20087;-63
2023/06/05 18:40:09;;;;;;;6.88;1.80;;;;;;;;;;10313413;28;20064;-62
2023/06/05 18:45:07;;;;;;;5.95;2.10;;;;;;;;;;10313381;28;20528;-61
2023/06/05 18:50:06;;;;;;;1.77;1.30;;;;;;;;;;10313796;28;20357;-62
2023/06/05 18:55:08;;;;;;;2.70;1.70;;;;;;;;;;10309612;28;20080;-62
2023/06/05 19:00:07;;;;;;;2.92;1.85;;;;;;;;;;10311746;28;20080;-62
2023/06/05 19:05:06;;;;;;;7.30;2.00;;;;;;;;;;10309135;28;20091;-62
2023/06/05 19:10:08;;;;;;;3.50;1.35;;;;;;;;;;10310571;28;20628;-62
2023/06/05 19:15:07;;;;;;;5.90;2.10;;;;;;;;;;10309729;28;20068;-61
2023/06/05 19:20:06;;;;;;;6.47;3.00;;;;;;;;;;10310781;28;20103;-62
2023/06/05 19:25:07;;;;;;;7.35;2.47;;;;;;;;;;10308188;28;20072;-62
2023/06/05 19:30:06;;;;;;;7.13;2.13;;;;;;;;;;10306878;28;20541;-62
2023/06/05 19:35:05;;;;;;;4.32;1.70;;;;;;;;;;10313565;28;20529;-62
2023/06/05 19:40:03;;;;;;;1.92;1.55;;;;;;;;;;10318741;28;20519;-62
2023/06/05 19:45:03;;;;;;;10.10;3.05;;;;;;;;;;10320058;28;20079;-61
2023/06/05 19:50:01;;;;;;;4.75;1.83;;;;;;;;;;10321452;28;20497;-62
2023/06/05 19:55:00;;;;;;;6.20;1.80;;;;;;;;;;10319732;28;20091;-63
2023/06/05 19:59:58;;;;;;;6.80;1.95;;;;;;;;;;10317492;28;20462;-62
2023/06/05 20:04:58;;;;;;;2.10;1.40;;;;;;;;;;10309535;28;20075;-62
2023/06/05 20:09:56;;;;;;;2.95;1.70;;;;;;;;;;10313493;28;20072;-62
2023/06/05 20:14:54;;;;;;;5.38;1.88;;;;;;;;;;10311145;28;20072;-62
2023/06/05 20:19:52;;;;;;;6.95;1.67;;;;;;;;;;10312456;28;20079;-61
2023/06/05 20:24:53;;;;;;;4.78;2.10;;;;;;;;;;10316552;28;20076;-61
2023/06/05 20:29:52;;;;;;;3.90;2.05;;;;;;;;;;10317068;28;20079;-61
2023/06/05 20:34:50;;;;;;;2.50;1.80;;;;;;;;;;10314140;28;20076;-61
2023/06/05 20:39:49;;;;;;;3.17;2.08;;;;;;;;;;10316325;28;20079;-62
2023/06/05 20:44:49;;;;;;;5.45;2.92;;;;;;;;;;10317295;28;20080;-62
2023/06/05 20:49:47;;;;;;;3.50;2.15;;;;;;;;;;10316063;28;20075;-62
2023/06/05 20:54:46;;;;;;;6.97;1.63;;;;;;;;;;10316312;28;20076;-62
2023/06/05 20:59:47;;;;;;;3.40;1.67;;;;;;;;;;10305037;28;20080;-62
2023/06/05 21:04:48;;;;;;;4.75;1.73;;;;;;;;;;10310459;28;20076;-62
2023/06/05 21:09:47;;;;;;;2.92;1.80;;;;;;;;;;10310490;28;20083;-62
2023/06/05 21:14:45;;;;;;;3.92;2.08;;;;;;;;;;10317389;28;20102;-62
2023/06/05 21:19:43;;;;;;;4.68;1.67;;;;;;;;;;10314882;28;20068;-62
2023/06/05 21:24:43;;;;;;;4.13;2.92;;;;;;;;;;10316609;28;20068;-62
2023/06/05 21:29:41;;;;;;;6.10;2.72;;;;;;;;;;10314066;28;20076;-62
2023/06/05 21:34:43;;;;;;;2.20;1.52;;;;;;;;;;10314774;28;20083;-62
2023/06/05 21:39:43;;;;;;;8.57;2.05;;;;;;;;;;10313927;28;20517;-62
2023/06/05 21:44:42;;;;;;;2.08;1.67;;;;;;;;;;10315273;28;20855;-63
2023/06/05 21:49:41;;;;;;;4.75;1.83;;;;;;;;;;10315144;28;20072;-64
2023/06/05 21:54:41;;;;;;;4.15;2.17;;;;;;;;;;10313545;28;20083;-63
2023/06/05 21:59:41;;;;;;;5.32;3.10;;;;;;;;;;10314052;28;20075;-62
2023/06/05 22:04:39;;;;;;;1.98;1.67;;;;;;;;;;10315496;28;20076;-62
2023/06/05 22:09:37;;;;;;;4.85;1.77;;;;;;;;;;10315033;28;20068;-61
2023/06/05 22:14:40;;;;;;;2.60;1.67;;;;;;;;;;10314134;28;20083;-62
2023/06/05 22:19:41;;;;;;;2.83;2.28;;;;;;;;;;10314295;28;20076;-61
2023/06/05 22:24:39;;;;;;;3.35;2.13;;;;;;;;;;10313999;28;20068;-61
2023/06/05 22:29:38;;;;;;;4.30;1.83;;;;;;;;;;10314036;28;20064;-61
2023/06/05 22:34:36;;;;;;;1.88;1.67;;;;;;;;;;10312906;28;20068;-62
2023/06/05 22:39:35;;;;;;;2.25;1.60;;;;;;;;;;10313349;28;20730;-62
2023/06/05 22:44:33;;;;;;;4.65;1.52;;;;;;;;;;10313394;28;20064;-62
2023/06/05 22:49:32;;;;;;;3.92;1.50;;;;;;;;;;10313174;28;20070;-62
2023/06/05 22:54:30;;;;;;;5.53;1.98;;;;;;;;;;10313367;28;20068;-62
2023/06/05 22:59:30;;;;;;;6.75;1.63;;;;;;;;;;10298200;28;20885;-62
2023/06/05 23:04:29;;;;;;;3.92;1.65;;;;;;;;;;10301228;28;20087;-61
2023/06/05 23:09:27;;;;;;;2.70;1.42;;;;;;;;;;10304304;28;20465;-62
2023/06/05 23:14:25;;;;;;;2.72;1.60;;;;;;;;;;10317662;28;20075;-61
2023/06/05 23:19:25;;;;;;;2.35;2.00;;;;;;;;;;10317403;28;20486;-62
2023/06/05 23:24:23;;;;;;;6.00;1.60;;;;;;;;;;10320591;28;20087;-62
2023/06/05 23:29:21;;;;;;;1.50;1.40;;;;;;;;;;10320547;28;20538;-62
2023/06/05 23:34:19;;;;;;;7.80;1.80;;;;;;;;;;10319899;28;20071;-62
2023/06/05 23:39:19;;;;;;;1.88;1.60;;;;;;;;;;10320130;28;20458;-61
2023/06/05 23:44:17;;;;;;;3.38;1.92;;;;;;;;;;10319859;28;20425;-62
2023/06/05 23:49:16;;;;;;;3.78;1.73;;;;;;;;;;10320179;28;20068;-62
2023/06/05 23:54:15;;;;;;;2.05;1.27;;;;;;;;;;10318441;28;20064;-62
2023/06/05 23:59:15;;;;;;;3.92;1.73;;;;;;;;;;10317821;28;20064;-62
